createdAt,value
2019-03-17T00:00:59.423Z,6.10
2019-03-17T00:03:27.596Z,6.30
2019-03-17T00:05:55.782Z,5.27
2019-03-17T00:08:23.918Z,6.33
2019-03-17T00:10:52.802Z,6.57
2019-03-17T00:13:21.105Z,7.23
2019-03-17T00:15:49.164Z,7.07
2019-03-17T00:18:17.269Z,6.60
2019-03-17T00:20:45.335Z,6.60
2019-03-17T00:23:13.506Z,7.07
2019-03-17T00:25:41.757Z,5.73
2019-03-17T00:28:09.833Z,5.30
2019-03-17T00:30:37.927Z,6.50
2019-03-17T00:33:06.042Z,6.63
2019-03-17T00:35:34.103Z,7.03
2019-03-17T00:38:02.223Z,6.60
2019-03-17T00:40:30.506Z,6.50
2019-03-17T00:42:58.733Z,6.10
2019-03-17T00:45:26.946Z,5.67
2019-03-17T00:47:55.071Z,6.50
2019-03-17T00:50:23.320Z,6.63
2019-03-17T00:52:54.241Z,6.13
2019-03-17T00:55:22.305Z,5.93
2019-03-17T00:57:50.384Z,5.30
2019-03-17T01:00:19.139Z,5.53
2019-03-17T01:02:47.196Z,4.90
2019-03-17T01:05:15.504Z,4.73
2019-03-17T01:07:44.488Z,5.27
2019-03-17T01:10:12.732Z,5.80
2019-03-17T01:12:40.996Z,5.17
2019-03-17T01:15:09.052Z,5.97
2019-03-17T01:17:37.131Z,4.87
2019-03-17T01:20:05.350Z,5.53
2019-03-17T01:22:33.475Z,4.57
2019-03-17T01:25:01.677Z,5.77
2019-03-17T01:27:29.774Z,5.30
2019-03-17T01:29:57.974Z,4.17
2019-03-17T01:32:26.024Z,4.93
2019-03-17T01:34:54.119Z,5.37
2019-03-17T01:37:22.211Z,4.87
2019-03-17T01:39:50.251Z,3.70
2019-03-17T01:42:18.592Z,4.47
2019-03-17T01:44:46.769Z,5.60
2019-03-17T01:47:14.896Z,4.03
2019-03-17T01:49:42.927Z,4.93
2019-03-17T01:52:10.986Z,5.13
2019-03-17T01:54:39.087Z,4.03
2019-03-17T01:57:07.161Z,4.73
2019-03-17T01:59:35.223Z,4.00
2019-03-17T02:02:03.371Z,4.87
2019-03-17T02:04:31.535Z,4.30
2019-03-17T02:06:59.622Z,4.30
2019-03-17T02:09:27.847Z,3.80
2019-03-17T02:11:55.942Z,3.63
2019-03-17T02:14:23.987Z,3.83
2019-03-17T02:16:52.093Z,2.67
2019-03-17T02:19:20.440Z,4.03
2019-03-17T02:21:48.595Z,4.03
2019-03-17T02:24:16.777Z,3.60
2019-03-17T02:26:44.862Z,4.10
2019-03-17T02:29:15.376Z,3.90
2019-03-17T02:31:43.478Z,3.73
2019-03-17T02:34:12.255Z,4.20
2019-03-17T02:36:40.981Z,3.63
2019-03-17T02:39:09.030Z,3.77
2019-03-17T02:41:37.097Z,4.03
2019-03-17T02:44:05.196Z,3.77
2019-03-17T02:46:33.295Z,3.97
2019-03-17T02:49:02.424Z,3.13
2019-03-17T02:51:30.483Z,3.03
2019-03-17T02:53:59.119Z,3.33
2019-03-17T02:56:27.192Z,3.40
2019-03-17T02:58:55.305Z,3.93
2019-03-17T03:01:23.427Z,3.00
2019-03-17T03:03:51.665Z,4.43
2019-03-17T03:06:20.058Z,3.00
2019-03-17T03:08:48.166Z,2.60
2019-03-17T03:11:16.277Z,3.40
2019-03-17T03:13:44.364Z,3.03
2019-03-17T03:16:12.420Z,2.83
2019-03-17T03:18:40.517Z,2.73
2019-03-17T03:21:08.582Z,2.57
2019-03-17T03:23:37.500Z,3.50
2019-03-17T03:26:05.871Z,2.73
2019-03-17T03:28:34.106Z,2.70
2019-03-17T03:31:02.131Z,3.30
2019-03-17T03:33:30.186Z,2.10
2019-03-17T03:36:10.202Z,3.33
2019-03-17T03:38:28.814Z,2.60
2019-03-17T03:40:56.981Z,3.37
2019-03-17T03:43:26.394Z,2.60
2019-03-17T03:45:55.479Z,2.53
2019-03-17T03:48:23.962Z,3.43
2019-03-17T03:50:52.031Z,3.03
2019-03-17T03:53:20.103Z,2.57
2019-03-17T03:55:48.996Z,2.70
2019-03-17T03:58:17.707Z,2.67
2019-03-17T04:00:45.967Z,3.83
2019-03-17T04:03:14.244Z,3.37
2019-03-17T04:05:43.102Z,2.90
2019-03-17T04:08:11.170Z,2.83
2019-03-17T04:10:39.343Z,3.37
2019-03-17T04:13:07.435Z,3.80
2019-03-17T04:15:35.816Z,3.90
2019-03-17T04:18:03.978Z,3.90
2019-03-17T04:20:32.122Z,3.80
2019-03-17T04:23:00.218Z,4.30
2019-03-17T04:25:28.314Z,4.50
2019-03-17T04:27:56.386Z,3.00
2019-03-17T04:30:24.498Z,3.80
2019-03-17T04:32:55.571Z,3.23
2019-03-17T04:35:23.734Z,3.80
2019-03-17T04:37:51.935Z,3.33
2019-03-17T04:40:20.130Z,3.40
2019-03-17T04:42:48.183Z,4.70
2019-03-17T04:45:16.269Z,3.83
2019-03-17T04:47:44.352Z,4.07
2019-03-17T04:50:12.423Z,3.93
2019-03-17T04:52:40.513Z,4.40
2019-03-17T04:55:08.698Z,3.70
2019-03-17T04:57:36.855Z,3.17
2019-03-17T05:00:05.393Z,3.07
2019-03-17T05:02:33.489Z,3.87
2019-03-17T05:05:02.478Z,4.07
2019-03-17T05:07:30.700Z,4.20
2019-03-17T05:09:58.759Z,3.33
2019-03-17T05:12:28.405Z,4.80
2019-03-17T05:14:56.607Z,4.20
2019-03-17T05:17:24.663Z,4.73
2019-03-17T05:19:52.749Z,3.33
2019-03-17T05:22:20.871Z,4.10
2019-03-17T05:24:48.985Z,3.33
2019-03-17T05:27:17.088Z,4.37
2019-03-17T05:29:45.198Z,4.57
2019-03-17T05:32:13.256Z,4.70
2019-03-17T05:34:41.564Z,4.03
2019-03-17T05:37:09.653Z,4.77
2019-03-17T05:39:37.767Z,5.23
2019-03-17T05:42:06.056Z,3.73
2019-03-17T05:44:34.107Z,3.97
2019-03-17T05:47:02.697Z,6.70
2019-03-17T05:49:30.773Z,2.27
2019-03-17T05:51:58.930Z,2.23
2019-03-17T05:54:27.031Z,1.63
2019-03-17T05:56:55.127Z,2.30
2019-03-17T05:59:23.302Z,1.63
2019-03-17T06:01:51.710Z,2.10
2019-03-17T06:04:19.776Z,2.00
2019-03-17T06:06:47.862Z,1.80
2019-03-17T06:09:16.352Z,1.60
2019-03-17T06:11:44.427Z,1.40
2019-03-17T06:14:12.597Z,1.20
2019-03-17T06:16:40.708Z,1.13
2019-03-17T06:19:08.762Z,1.30
2019-03-17T06:21:36.859Z,1.33
2019-03-17T06:24:05.290Z,1.60
2019-03-17T06:26:33.400Z,1.30
2019-03-17T06:29:01.409Z,1.27
2019-03-17T06:31:29.739Z,1.30
2019-03-17T06:33:57.908Z,1.40
2019-03-17T06:36:26.002Z,1.20
2019-03-17T06:38:54.093Z,1.70
2019-03-17T06:41:22.161Z,1.30
2019-03-17T06:43:50.265Z,1.40
2019-03-17T06:46:18.324Z,1.40
2019-03-17T06:48:46.544Z,1.40
2019-03-17T06:51:14.706Z,1.50
2019-03-17T06:53:55.521Z,1.60
2019-03-17T06:56:12.536Z,1.87
2019-03-17T06:58:40.609Z,1.77
2019-03-17T07:01:08.703Z,1.70
2019-03-17T07:03:36.875Z,2.00
2019-03-17T07:06:05.074Z,2.07
2019-03-17T07:08:33.248Z,2.17
2019-03-17T07:11:01.355Z,2.13
2019-03-17T07:13:29.453Z,1.93
2019-03-17T07:15:57.744Z,2.23
2019-03-17T07:18:25.812Z,1.70
2019-03-17T07:20:54.280Z,1.67
2019-03-17T07:23:22.386Z,1.43
2019-03-17T07:25:50.485Z,1.70
2019-03-17T07:28:18.588Z,2.00
2019-03-17T07:30:46.676Z,1.60
2019-03-17T07:33:15.042Z,1.60
2019-03-17T07:35:46.156Z,1.53
2019-03-17T07:38:12.912Z,1.67
2019-03-17T07:40:41.111Z,1.80
2019-03-17T07:43:09.171Z,1.50
2019-03-17T07:45:37.241Z,1.90
2019-03-17T07:48:05.335Z,1.87
2019-03-17T07:50:36.558Z,1.43
2019-03-17T07:53:04.891Z,1.50
2019-03-17T07:55:32.964Z,2.67
2019-03-17T07:58:01.120Z,2.37
2019-03-17T08:00:32.311Z,1.60
2019-03-17T08:02:59.069Z,1.60
2019-03-17T08:05:27.125Z,1.47
2019-03-17T08:07:55.423Z,1.50
2019-03-17T08:10:23.695Z,1.87
2019-03-17T08:12:51.776Z,1.50
2019-03-17T08:15:19.871Z,1.13
2019-03-17T08:17:47.943Z,1.90
2019-03-17T08:20:18.337Z,1.70
2019-03-17T08:22:46.459Z,1.70
2019-03-17T08:25:14.588Z,1.87
2019-03-17T08:27:42.666Z,1.40
2019-03-17T08:30:11.608Z,1.63
2019-03-17T08:32:41.202Z,1.50
2019-03-17T08:35:09.707Z,1.83
2019-03-17T08:37:37.827Z,1.93
2019-03-17T08:40:06.485Z,1.60
2019-03-17T08:42:34.588Z,1.83
2019-03-17T08:45:02.675Z,1.87
2019-03-17T08:47:30.893Z,1.77
2019-03-17T08:49:58.948Z,1.90
2019-03-17T08:52:27.144Z,1.80
2019-03-17T08:54:55.259Z,2.27
2019-03-17T08:57:23.333Z,1.80
2019-03-17T08:59:51.399Z,2.00
2019-03-17T09:02:19.494Z,2.73
2019-03-17T09:04:47.581Z,2.50
2019-03-17T09:07:15.663Z,2.20
2019-03-17T09:09:43.740Z,2.07
2019-03-17T09:12:12.057Z,1.93
2019-03-17T09:14:40.234Z,1.70
2019-03-17T09:17:14.102Z,1.57
2019-03-17T09:19:38.101Z,2.20
2019-03-17T09:22:06.222Z,2.10
2019-03-17T09:24:34.299Z,1.90
2019-03-17T09:27:02.499Z,2.30
2019-03-17T09:29:30.694Z,2.10
2019-03-17T09:31:58.823Z,2.20
2019-03-17T09:34:26.890Z,2.73
2019-03-17T09:36:54.956Z,2.37
2019-03-17T09:39:23.067Z,2.73
2019-03-17T09:41:51.236Z,2.60
2019-03-17T09:44:19.310Z,2.03
2019-03-17T09:46:47.517Z,1.50
2019-03-17T09:49:15.622Z,1.07
2019-03-17T09:51:43.692Z,1.00
2019-03-17T09:54:11.787Z,0.90
2019-03-17T09:56:40.173Z,1.23
2019-03-17T09:59:08.317Z,1.00
2019-03-17T10:01:36.393Z,0.90
2019-03-17T10:04:04.596Z,1.30
2019-03-17T10:06:32.793Z,0.87
2019-03-17T10:09:00.979Z,0.97
2019-03-17T10:11:29.049Z,1.10
2019-03-17T10:13:57.197Z,1.00
2019-03-17T10:16:25.262Z,1.10
2019-03-17T10:18:53.466Z,1.40
2019-03-17T10:21:21.532Z,1.30
2019-03-17T10:23:49.783Z,1.20
2019-03-17T10:26:17.906Z,1.03
2019-03-17T10:28:45.986Z,1.47
2019-03-17T10:31:14.182Z,1.17
2019-03-17T10:33:42.283Z,1.40
2019-03-17T10:36:10.466Z,1.40
2019-03-17T10:38:38.567Z,1.30
2019-03-17T10:41:06.735Z,1.10
2019-03-17T10:43:34.797Z,1.30
2019-03-17T10:46:02.909Z,1.40
2019-03-17T10:48:31.024Z,1.53
2019-03-17T10:50:59.128Z,1.63
2019-03-17T10:53:27.264Z,1.43
2019-03-17T10:55:55.322Z,1.70
2019-03-17T10:58:23.455Z,1.50
2019-03-17T11:00:51.572Z,1.33
2019-03-17T11:03:19.693Z,1.50
2019-03-17T11:05:47.803Z,1.40
2019-03-17T11:08:15.911Z,1.20
2019-03-17T11:10:44.011Z,1.43
2019-03-17T11:13:12.134Z,1.10
2019-03-17T11:15:40.310Z,1.53
2019-03-17T11:18:08.441Z,1.40
2019-03-17T11:20:36.671Z,1.47
2019-03-17T11:23:04.789Z,1.10
2019-03-17T11:25:33.163Z,1.30
2019-03-17T11:28:01.299Z,1.20
2019-03-17T11:30:29.522Z,1.30
2019-03-17T11:32:57.711Z,1.50
2019-03-17T11:35:25.899Z,1.40
2019-03-17T11:37:54.101Z,1.20
2019-03-17T11:40:22.427Z,1.53
2019-03-17T11:42:50.636Z,1.03
2019-03-17T11:45:18.727Z,1.10
2019-03-17T11:47:46.970Z,1.07
2019-03-17T11:50:15.334Z,1.03
2019-03-17T11:52:43.676Z,1.50
2019-03-17T11:55:12.207Z,1.50
2019-03-17T11:57:40.410Z,1.90
2019-03-17T12:00:09.407Z,1.70
2019-03-17T12:02:37.607Z,1.80
2019-03-17T12:05:05.960Z,1.73
2019-03-17T12:07:34.178Z,2.03
2019-03-17T12:10:02.831Z,2.20
2019-03-17T12:12:31.035Z,2.40
2019-03-17T12:14:59.144Z,3.40
2019-03-17T12:17:27.200Z,2.60
2019-03-17T12:19:55.284Z,2.40
2019-03-17T12:22:23.436Z,3.00
2019-03-17T12:24:51.568Z,2.60
2019-03-17T12:27:19.698Z,3.20
2019-03-17T12:29:47.890Z,2.40
2019-03-17T12:32:15.984Z,2.90
2019-03-17T12:34:44.232Z,2.80
2019-03-17T12:37:12.348Z,3.10
2019-03-17T12:39:40.535Z,2.87
2019-03-17T12:42:09.003Z,2.50
2019-03-17T12:44:37.399Z,2.67
2019-03-17T12:47:05.543Z,2.30
2019-03-17T12:49:33.792Z,1.67
2019-03-17T12:52:02.016Z,1.80
2019-03-17T12:54:30.172Z,1.93
2019-03-17T12:56:58.430Z,1.77
2019-03-17T12:59:26.569Z,1.80
2019-03-17T13:01:54.672Z,1.50
2019-03-17T13:04:25.121Z,1.87
2019-03-17T13:06:53.216Z,1.70
2019-03-17T13:09:21.339Z,1.40
2019-03-17T13:11:49.502Z,1.40
2019-03-17T13:14:17.663Z,1.83
2019-03-17T13:16:46.924Z,1.37
2019-03-17T13:19:15.055Z,1.40
2019-03-17T13:21:43.206Z,1.57
2019-03-17T13:24:11.281Z,1.77
2019-03-17T13:26:39.887Z,1.63
2019-03-17T13:29:08.492Z,1.90
2019-03-17T13:31:36.601Z,1.60
2019-03-17T13:34:04.709Z,1.37
2019-03-17T13:36:32.985Z,1.70
2019-03-17T13:39:01.108Z,1.33
2019-03-17T13:41:29.273Z,1.50
2019-03-17T13:43:57.464Z,1.43
2019-03-17T13:46:25.579Z,1.80
2019-03-17T13:48:53.812Z,1.70
2019-03-17T13:51:21.927Z,1.50
2019-03-17T13:53:50.773Z,1.67
2019-03-17T13:56:18.877Z,1.63
2019-03-17T13:58:47.128Z,1.80
2019-03-17T14:01:15.270Z,1.70
2019-03-17T14:03:43.472Z,1.57
2019-03-17T14:06:11.642Z,1.30
2019-03-17T14:08:39.901Z,1.33
2019-03-17T14:11:08.142Z,1.50
2019-03-17T14:13:36.465Z,1.80
2019-03-17T14:16:05.211Z,1.80
2019-03-17T14:18:33.404Z,1.50
2019-03-17T14:21:01.772Z,1.40
2019-03-17T14:23:29.956Z,1.30
2019-03-17T14:25:58.154Z,1.33
2019-03-17T14:28:26.585Z,1.60
2019-03-17T14:30:54.804Z,1.50
2019-03-17T14:33:22.954Z,1.60
2019-03-17T14:35:51.157Z,1.63
2019-03-17T14:38:19.288Z,1.60
2019-03-17T14:40:53.259Z,2.07
2019-03-17T14:43:18.255Z,1.40
2019-03-17T14:45:46.556Z,1.97
2019-03-17T14:48:14.630Z,1.70
2019-03-17T14:50:43.146Z,1.70
2019-03-17T14:53:11.352Z,1.50
2019-03-17T14:55:39.676Z,1.37
2019-03-17T14:58:07.836Z,1.80
2019-03-17T15:00:36.203Z,1.30
2019-03-17T15:03:04.332Z,1.47
2019-03-17T15:05:32.473Z,1.97
2019-03-17T15:08:02.477Z,1.53
2019-03-17T15:10:31.640Z,1.20
2019-03-17T15:12:59.741Z,1.70
2019-03-17T15:15:28.032Z,1.40
2019-03-17T15:17:56.272Z,1.53
2019-03-17T15:20:24.410Z,1.50
2019-03-17T15:22:52.639Z,1.60
2019-03-17T15:25:20.871Z,1.53
2019-03-17T15:27:49.146Z,2.20
2019-03-17T15:30:18.416Z,2.33
2019-03-17T15:32:46.684Z,1.77
2019-03-17T15:35:14.837Z,1.70
2019-03-17T15:37:43.159Z,1.53
2019-03-17T15:40:11.515Z,1.40
2019-03-17T15:42:39.684Z,1.40
2019-03-17T15:45:08.843Z,2.03
2019-03-17T15:47:37.022Z,1.77
2019-03-17T15:50:05.376Z,1.40
2019-03-17T15:52:33.501Z,1.83
2019-03-17T15:55:02.321Z,1.50
2019-03-17T15:57:30.452Z,1.70
2019-03-17T15:59:58.864Z,1.60
2019-03-17T16:02:27.199Z,1.57
2019-03-17T16:04:55.741Z,1.70
2019-03-17T16:07:23.867Z,1.80
2019-03-17T16:09:54.878Z,1.60
2019-03-17T16:12:23.014Z,1.73
2019-03-17T16:14:51.570Z,1.80
2019-03-17T16:17:19.722Z,2.17
2019-03-17T16:19:47.916Z,1.90
2019-03-17T16:22:16.254Z,2.10
2019-03-17T16:24:45.244Z,1.87
2019-03-17T16:27:15.594Z,2.13
2019-03-17T16:29:44.076Z,2.30
2019-03-17T16:32:12.236Z,2.13
2019-03-17T16:34:40.407Z,2.13
2019-03-17T16:37:08.689Z,1.87
2019-03-17T16:39:36.914Z,1.80
2019-03-17T16:42:05.127Z,1.80
2019-03-17T16:44:33.461Z,1.83
2019-03-17T16:47:02.476Z,1.67
2019-03-17T16:49:30.582Z,1.97
2019-03-17T16:51:59.112Z,1.67
2019-03-17T16:54:27.344Z,1.87
2019-03-17T16:56:55.616Z,1.90
2019-03-17T16:59:24.762Z,1.63
2019-03-17T17:01:53.269Z,1.60
2019-03-17T17:04:22.066Z,1.90
2019-03-17T17:06:50.365Z,1.50
2019-03-17T17:09:18.892Z,3.03
2019-03-17T17:11:56.740Z,1.50
2019-03-17T17:14:17.171Z,1.57
2019-03-17T17:16:45.441Z,1.80
2019-03-17T17:19:13.695Z,1.70
2019-03-17T17:21:41.977Z,1.70
2019-03-17T17:24:10.140Z,1.60
2019-03-17T17:26:38.389Z,1.87
2019-03-17T17:29:06.689Z,2.83
2019-03-17T17:31:35.875Z,2.00
2019-03-17T17:34:04.194Z,1.87
2019-03-17T17:36:32.809Z,2.00
2019-03-17T17:39:02.237Z,1.50
2019-03-17T17:41:30.404Z,1.90
2019-03-17T17:43:58.523Z,1.80
2019-03-17T17:46:26.705Z,1.90
2019-03-17T17:48:54.865Z,2.10
2019-03-17T17:51:23.086Z,2.30
2019-03-17T17:53:51.355Z,1.80
2019-03-17T17:56:19.591Z,2.10
2019-03-17T17:58:48.962Z,1.97
2019-03-17T18:01:18.059Z,2.20
2019-03-17T18:03:51.631Z,2.10
2019-03-17T18:06:16.078Z,2.40
2019-03-17T18:08:44.360Z,2.23
2019-03-17T18:11:12.507Z,2.60
2019-03-17T18:13:43.044Z,1.97
2019-03-17T18:16:11.202Z,2.10
2019-03-17T18:18:39.382Z,1.83
2019-03-17T18:21:07.942Z,2.00
2019-03-17T18:23:36.382Z,2.10
2019-03-17T18:26:05.607Z,1.87
2019-03-17T18:28:35.450Z,2.10
2019-03-17T18:31:03.666Z,2.10
2019-03-17T18:33:32.244Z,2.30
2019-03-17T18:36:00.507Z,2.13
2019-03-17T18:38:28.724Z,2.23
2019-03-17T18:40:57.093Z,2.40
2019-03-17T18:43:26.058Z,2.13
2019-03-17T18:45:54.584Z,2.40
2019-03-17T18:48:23.669Z,1.87
2019-03-17T18:50:51.993Z,2.20
2019-03-17T18:53:20.330Z,2.10
2019-03-17T18:55:48.593Z,2.07
2019-03-17T18:58:16.935Z,2.00
2019-03-17T19:00:45.136Z,2.30
2019-03-17T19:03:13.429Z,2.10
2019-03-17T19:05:41.589Z,2.33
2019-03-17T19:08:10.644Z,1.93
2019-03-17T19:10:38.910Z,2.30
2019-03-17T19:13:07.271Z,2.30
2019-03-17T19:15:35.600Z,2.20
2019-03-17T19:18:03.718Z,2.20
2019-03-17T19:20:32.013Z,1.90
2019-03-17T19:23:00.585Z,2.13
2019-03-17T19:25:29.040Z,1.80
2019-03-17T19:27:57.576Z,1.97
2019-03-17T19:30:25.825Z,1.90
2019-03-17T19:32:54.080Z,1.90
2019-03-17T19:35:22.394Z,2.20
2019-03-17T19:37:50.660Z,2.20
2019-03-17T19:40:19.072Z,1.90
2019-03-17T19:42:58.190Z,1.90
2019-03-17T19:45:17.237Z,1.90
2019-03-17T19:47:45.532Z,2.30
2019-03-17T19:50:14.616Z,2.33
2019-03-17T19:52:42.939Z,2.30
2019-03-17T19:55:11.492Z,2.60
2019-03-17T19:57:42.076Z,2.40
2019-03-17T20:00:11.298Z,2.13
2019-03-17T20:02:41.170Z,2.10
2019-03-17T20:05:09.480Z,2.70
2019-03-17T20:07:37.647Z,2.87
2019-03-17T20:10:06.751Z,2.80
2019-03-17T20:12:35.811Z,2.70
2019-03-17T20:15:04.824Z,2.87
2019-03-17T20:17:33.200Z,2.83
2019-03-17T20:20:03.321Z,2.90
2019-03-17T20:22:32.156Z,2.33
2019-03-17T20:25:02.548Z,2.90
2019-03-17T20:27:31.065Z,2.83
2019-03-17T20:29:59.317Z,1.90
2019-03-17T20:32:29.588Z,2.30
2019-03-17T20:34:57.894Z,2.53
2019-03-17T20:37:26.091Z,2.60
2019-03-17T20:39:54.348Z,2.00
2019-03-17T20:42:22.760Z,2.10
2019-03-17T20:44:51.048Z,2.27
2019-03-17T20:47:19.694Z,2.30
2019-03-17T20:49:47.862Z,2.30
2019-03-17T20:52:16.262Z,2.27
2019-03-17T20:54:45.614Z,2.83
2019-03-17T20:57:14.764Z,2.10
2019-03-17T20:59:43.033Z,2.17
2019-03-17T21:02:13.295Z,2.67
2019-03-17T21:04:41.894Z,1.90
2019-03-17T21:07:10.282Z,1.77
2019-03-17T21:09:38.418Z,2.10
2019-03-17T21:12:06.639Z,2.10
2019-03-17T21:14:35.702Z,1.90
2019-03-17T21:17:04.943Z,2.23
2019-03-17T21:19:33.199Z,2.00
2019-03-17T21:22:02.793Z,1.80
2019-03-17T21:24:30.941Z,1.87
2019-03-17T21:26:59.245Z,1.80
2019-03-17T21:29:27.715Z,1.87
2019-03-17T21:31:55.907Z,2.03
2019-03-17T21:34:24.206Z,1.73
2019-03-17T21:36:52.330Z,1.60
2019-03-17T21:39:20.460Z,1.30
2019-03-17T21:41:48.556Z,2.00
2019-03-17T21:44:16.695Z,1.80
2019-03-17T21:46:44.776Z,1.93
2019-03-17T21:49:12.891Z,2.10
2019-03-17T21:51:40.992Z,2.00
2019-03-17T21:54:09.320Z,2.13
2019-03-17T21:56:37.396Z,1.80
2019-03-17T21:59:05.562Z,1.60
2019-03-17T22:01:33.744Z,1.70
2019-03-17T22:04:01.931Z,1.97
2019-03-17T22:06:30.120Z,1.87
2019-03-17T22:08:58.307Z,1.60
2019-03-17T22:11:26.420Z,1.90
2019-03-17T22:13:54.509Z,2.07
2019-03-17T22:16:22.805Z,1.57
2019-03-17T22:18:50.869Z,2.27
2019-03-17T22:21:18.948Z,2.17
2019-03-17T22:23:47.341Z,2.00
2019-03-17T22:26:15.405Z,1.80
2019-03-17T22:28:43.465Z,1.87
2019-03-17T22:31:11.564Z,1.50
2019-03-17T22:33:39.670Z,1.80
2019-03-17T22:36:07.775Z,1.87
2019-03-17T22:38:35.857Z,1.37
2019-03-17T22:41:04.056Z,1.70
2019-03-17T22:43:32.139Z,1.80
2019-03-17T22:46:00.169Z,2.10
2019-03-17T22:48:28.384Z,2.10
2019-03-17T22:50:56.440Z,1.90
2019-03-17T22:53:24.528Z,1.90
2019-03-17T22:55:52.626Z,2.00
2019-03-17T22:58:20.699Z,1.77
2019-03-17T23:00:49.482Z,1.83
2019-03-17T23:03:17.548Z,2.33
2019-03-17T23:05:46.034Z,2.30
2019-03-17T23:08:14.098Z,2.17
2019-03-17T23:10:42.167Z,3.10
2019-03-17T23:13:10.525Z,2.00
2019-03-17T23:15:38.584Z,2.30
2019-03-17T23:18:06.799Z,2.60
2019-03-17T23:20:35.335Z,3.07
2019-03-17T23:23:03.434Z,2.33
2019-03-17T23:25:31.481Z,3.00
2019-03-17T23:27:59.787Z,3.00
2019-03-17T23:30:28.980Z,2.60
2019-03-17T23:32:57.040Z,3.10
2019-03-17T23:35:25.160Z,2.97
2019-03-17T23:37:53.248Z,2.23
2019-03-17T23:40:21.336Z,3.40
2019-03-17T23:42:49.451Z,3.60
2019-03-17T23:45:17.863Z,3.17
2019-03-17T23:47:46.021Z,3.37
2019-03-17T23:50:14.381Z,3.33
2019-03-17T23:52:42.541Z,3.80
2019-03-17T23:55:10.665Z,2.97
2019-03-17T23:57:38.826Z,3.37
